sensor_id;sensor_type;location;lat;lon;timestamp;temperature;humidity
18281;DHT22;9266;51.132;17.062;2022-12-24T00:01:41;7.50;99.90
18281;DHT22;9266;51.132;17.062;2022-12-24T00:04:08;7.50;99.90
18281;DHT22;9266;51.132;17.062;2022-12-24T00:06:35;7.50;99.90
18281;DHT22;9266;51.132;17.062;2022-12-24T00:09:03;7.50;99.90
18281;DHT22;9266;51.132;17.062;2022-12-24T00:11:30;7.50;99.90
18281;DHT22;9266;51.132;17.062;2022-12-24T00:13:57;7.60;99.90
18281;DHT22;9266;51.132;17.062;2022-12-24T00:16:25;7.60;99.90
18281;DHT22;9266;51.132;17.062;2022-12-24T00:18:53;7.60;99.90
18281;DHT22;9266;51.132;17.062;2022-12-24T00:21:20;7.60;99.90
18281;DHT22;9266;51.132;17.062;2022-12-24T00:23:47;7.60;99.90
18281;DHT22;9266;51.132;17.062;2022-12-24T00:26:14;7.60;99.90
18281;DHT22;9266;51.132;17.062;2022-12-24T00:28:41;7.60;99.90
18281;DHT22;9266;51.132;17.062;2022-12-24T00:31:13;7.50;99.90
18281;DHT22;9266;51.132;17.062;2022-12-24T00:33:45;7.50;99.90
18281;DHT22;9266;51.132;17.062;2022-12-24T00:36:13;7.50;99.90
18281;DHT22;9266;51.132;17.062;2022-12-24T00:38:40;7.50;99.90
18281;DHT22;9266;51.132;17.062;2022-12-24T00:41:08;7.40;99.90
18281;DHT22;9266;51.132;17.062;2022-12-24T00:43:49;7.40;99.90
18281;DHT22;9266;51.132;17.062;2022-12-24T00:46:16;7.40;99.90
18281;DHT22;9266;51.132;17.062;2022-12-24T00:48:45;7.40;99.90
18281;DHT22;9266;51.132;17.062;2022-12-24T00:51:12;7.50;99.90
18281;DHT22;9266;51.132;17.062;2022-12-24T00:53:39;7.10;99.90
18281;DHT22;9266;51.132;17.062;2022-12-24T00:56:07;7.50;99.90
18281;DHT22;9266;51.132;17.062;2022-12-24T00:58:34;7.50;99.90
18281;DHT22;9266;51.132;17.062;2022-12-24T01:01:02;7.50;99.90
18281;DHT22;9266;51.132;17.062;2022-12-24T01:03:29;7.40;99.90
18281;DHT22;9266;51.132;17.062;2022-12-24T01:06:05;7.40;99.90
18281;DHT22;9266;51.132;17.062;2022-12-24T01:08:32;7.40;99.90
18281;DHT22;9266;51.132;17.062;2022-12-24T01:11:00;7.50;99.90
18281;DHT22;9266;51.132;17.062;2022-12-24T01:13:27;7.60;99.90
18281;DHT22;9266;51.132;17.062;2022-12-24T01:15:54;7.50;99.90
18281;DHT22;9266;51.132;17.062;2022-12-24T01:18:22;7.50;99.90
18281;DHT22;9266;51.132;17.062;2022-12-24T01:20:55;7.40;99.90
18281;DHT22;9266;51.132;17.062;2022-12-24T01:23:26;7.50;99.90
18281;DHT22;9266;51.132;17.062;2022-12-24T01:25:53;7.50;99.90
18281;DHT22;9266;51.132;17.062;2022-12-24T01:28:20;7.50;99.90
18281;DHT22;9266;51.132;17.062;2022-12-24T01:30:48;7.40;99.90
18281;DHT22;9266;51.132;17.062;2022-12-24T01:33:15;7.40;99.90
18281;DHT22;9266;51.132;17.062;2022-12-24T01:35:42;7.50;99.90
18281;DHT22;9266;51.132;17.062;2022-12-24T01:38:10;7.50;99.90
18281;DHT22;9266;51.132;17.062;2022-12-24T01:40:39;7.50;99.90
18281;DHT22;9266;51.132;17.062;2022-12-24T01:43:26;7.40;99.90
18281;DHT22;9266;51.132;17.062;2022-12-24T01:45:54;7.50;99.90
18281;DHT22;9266;51.132;17.062;2022-12-24T01:48:30;7.50;99.90
18281;DHT22;9266;51.132;17.062;2022-12-24T01:51:03;7.50;99.90
18281;DHT22;9266;51.132;17.062;2022-12-24T01:53:33;7.50;99.90
18281;DHT22;9266;51.132;17.062;2022-12-24T01:56:05;7.50;99.90
18281;DHT22;9266;51.132;17.062;2022-12-24T01:58:34;7.50;99.90
18281;DHT22;9266;51.132;17.062;2022-12-24T02:01:02;7.40;99.90
18281;DHT22;9266;51.132;17.062;2022-12-24T02:03:29;7.40;99.90
18281;DHT22;9266;51.132;17.062;2022-12-24T02:05:57;7.40;99.90
18281;DHT22;9266;51.132;17.062;2022-12-24T02:08:25;7.40;99.90
18281;DHT22;9266;51.132;17.062;2022-12-24T02:11:10;7.40;99.90
18281;DHT22;9266;51.132;17.062;2022-12-24T02:13:37;7.40;99.90
18281;DHT22;9266;51.132;17.062;2022-12-24T02:16:13;7.40;99.90
18281;DHT22;9266;51.132;17.062;2022-12-24T02:18:47;7.40;99.90
18281;DHT22;9266;51.132;17.062;2022-12-24T02:21:43;7.30;99.90
18281;DHT22;9266;51.132;17.062;2022-12-24T02:27:19;7.40;99.90
18281;DHT22;9266;51.132;17.062;2022-12-24T02:30:04;7.30;99.90
18281;DHT22;9266;51.132;17.062;2022-12-24T02:32:36;7.30;99.90
18281;DHT22;9266;51.132;17.062;2022-12-24T02:35:10;7.30;99.90
18281;DHT22;9266;51.132;17.062;2022-12-24T02:37:42;7.30;99.90
18281;DHT22;9266;51.132;17.062;2022-12-24T02:40:13;7.30;99.90
18281;DHT22;9266;51.132;17.062;2022-12-24T02:42:44;7.40;99.90
18281;DHT22;9266;51.132;17.062;2022-12-24T02:45:15;7.30;99.90
18281;DHT22;9266;51.132;17.062;2022-12-24T02:47:44;7.30;99.90
18281;DHT22;9266;51.132;17.062;2022-12-24T02:50:14;7.30;99.90
18281;DHT22;9266;51.132;17.062;2022-12-24T02:52:42;7.40;99.90
18281;DHT22;9266;51.132;17.062;2022-12-24T02:55:13;7.40;99.90
18281;DHT22;9266;51.132;17.062;2022-12-24T03:00:46;7.50;99.90
18281;DHT22;9266;51.132;17.062;2022-12-24T03:03:27;7.50;99.90
18281;DHT22;9266;51.132;17.062;2022-12-24T03:06:01;7.50;99.90
18281;DHT22;9266;51.132;17.062;2022-12-24T03:08:39;7.50;99.90
18281;DHT22;9266;51.132;17.062;2022-12-24T03:11:10;7.50;99.90
18281;DHT22;9266;51.132;17.062;2022-12-24T03:13:38;7.40;99.90
18281;DHT22;9266;51.132;17.062;2022-12-24T03:16:10;7.50;99.90
18281;DHT22;9266;51.132;17.062;2022-12-24T03:18:42;7.40;99.90
18281;DHT22;9266;51.132;17.062;2022-12-24T03:21:12;7.40;99.90
18281;DHT22;9266;51.132;17.062;2022-12-24T03:23:40;7.50;99.90
18281;DHT22;9266;51.132;17.062;2022-12-24T03:26:09;7.50;99.90
18281;DHT22;9266;51.132;17.062;2022-12-24T03:28:39;7.50;99.90
18281;DHT22;9266;51.132;17.062;2022-12-24T03:31:08;7.50;99.90
18281;DHT22;9266;51.132;17.062;2022-12-24T03:33:36;7.50;99.90
18281;DHT22;9266;51.132;17.062;2022-12-24T03:36:04;7.50;99.90
18281;DHT22;9266;51.132;17.062;2022-12-24T03:38:32;7.50;99.90
18281;DHT22;9266;51.132;17.062;2022-12-24T03:41:00;7.50;99.90
18281;DHT22;9266;51.132;17.062;2022-12-24T03:43:27;7.50;99.90
18281;DHT22;9266;51.132;17.062;2022-12-24T03:45:54;7.50;99.90
18281;DHT22;9266;51.132;17.062;2022-12-24T03:48:23;7.50;99.90
18281;DHT22;9266;51.132;17.062;2022-12-24T03:50:50;7.50;99.90
18281;DHT22;9266;51.132;17.062;2022-12-24T03:53:17;7.50;99.90
18281;DHT22;9266;51.132;17.062;2022-12-24T03:55:44;7.60;99.90
18281;DHT22;9266;51.132;17.062;2022-12-24T03:58:12;7.60;99.90
18281;DHT22;9266;51.132;17.062;2022-12-24T04:00:39;7.60;99.90
18281;DHT22;9266;51.132;17.062;2022-12-24T04:03:06;7.60;99.90
18281;DHT22;9266;51.132;17.062;2022-12-24T04:05:35;7.60;99.90
18281;DHT22;9266;51.132;17.062;2022-12-24T04:08:02;7.60;99.90
18281;DHT22;9266;51.132;17.062;2022-12-24T04:10:29;7.70;99.90
18281;DHT22;9266;51.132;17.062;2022-12-24T04:12:56;7.90;99.90
18281;DHT22;9266;51.132;17.062;2022-12-24T04:15:23;8.00;99.90
18281;DHT22;9266;51.132;17.062;2022-12-24T04:17:50;8.20;99.90
18281;DHT22;9266;51.132;17.062;2022-12-24T04:20:17;8.20;99.90
18281;DHT22;9266;51.132;17.062;2022-12-24T04:22:45;8.30;99.90
18281;DHT22;9266;51.132;17.062;2022-12-24T04:25:13;8.40;99.90
18281;DHT22;9266;51.132;17.062;2022-12-24T04:27:40;8.50;99.90
18281;DHT22;9266;51.132;17.062;2022-12-24T04:30:08;8.50;99.90
18281;DHT22;9266;51.132;17.062;2022-12-24T04:32:35;8.50;99.90
18281;DHT22;9266;51.132;17.062;2022-12-24T04:35:02;8.50;99.90
18281;DHT22;9266;51.132;17.062;2022-12-24T04:37:29;8.50;99.90
18281;DHT22;9266;51.132;17.062;2022-12-24T04:39:57;8.60;99.90
18281;DHT22;9266;51.132;17.062;2022-12-24T04:42:24;8.60;99.90
18281;DHT22;9266;51.132;17.062;2022-12-24T04:44:51;8.60;99.90
18281;DHT22;9266;51.132;17.062;2022-12-24T04:47:18;8.70;99.90
18281;DHT22;9266;51.132;17.062;2022-12-24T04:49:45;8.60;99.90
18281;DHT22;9266;51.132;17.062;2022-12-24T04:52:12;8.70;99.90
18281;DHT22;9266;51.132;17.062;2022-12-24T04:54:39;8.70;99.90
18281;DHT22;9266;51.132;17.062;2022-12-24T04:57:08;8.80;99.90
18281;DHT22;9266;51.132;17.062;2022-12-24T04:59:35;8.80;99.90
18281;DHT22;9266;51.132;17.062;2022-12-24T05:02:02;8.80;99.90
18281;DHT22;9266;51.132;17.062;2022-12-24T05:04:29;8.80;99.90
18281;DHT22;9266;51.132;17.062;2022-12-24T05:06:57;8.80;99.90
18281;DHT22;9266;51.132;17.062;2022-12-24T05:09:24;8.80;99.90
18281;DHT22;9266;51.132;17.062;2022-12-24T05:11:51;8.80;99.90
18281;DHT22;9266;51.132;17.062;2022-12-24T05:14:20;8.90;99.90
18281;DHT22;9266;51.132;17.062;2022-12-24T05:16:47;8.90;99.90
18281;DHT22;9266;51.132;17.062;2022-12-24T05:19:14;8.90;99.90
18281;DHT22;9266;51.132;17.062;2022-12-24T05:21:41;8.90;99.90
18281;DHT22;9266;51.132;17.062;2022-12-24T05:24:09;9.00;99.90
18281;DHT22;9266;51.132;17.062;2022-12-24T05:26:55;9.00;99.90
18281;DHT22;9266;51.132;17.062;2022-12-24T05:29:24;9.00;99.90
18281;DHT22;9266;51.132;17.062;2022-12-24T05:31:51;9.10;99.90
18281;DHT22;9266;51.132;17.062;2022-12-24T05:34:18;9.10;99.90
18281;DHT22;9266;51.132;17.062;2022-12-24T05:36:45;9.10;99.90
18281;DHT22;9266;51.132;17.062;2022-12-24T05:39:14;9.10;99.90
18281;DHT22;9266;51.132;17.062;2022-12-24T05:41:41;9.10;99.90
18281;DHT22;9266;51.132;17.062;2022-12-24T05:44:08;9.10;99.90
18281;DHT22;9266;51.132;17.062;2022-12-24T05:46:37;9.10;99.90
18281;DHT22;9266;51.132;17.062;2022-12-24T05:49:04;9.10;99.90
18281;DHT22;9266;51.132;17.062;2022-12-24T05:51:31;9.10;99.90
18281;DHT22;9266;51.132;17.062;2022-12-24T05:53:58;9.10;99.90
18281;DHT22;9266;51.132;17.062;2022-12-24T05:56:25;9.00;99.90
18281;DHT22;9266;51.132;17.062;2022-12-24T05:58:53;9.00;99.90
18281;DHT22;9266;51.132;17.062;2022-12-24T06:01:21;9.00;99.90
18281;DHT22;9266;51.132;17.062;2022-12-24T06:03:50;9.00;99.90
18281;DHT22;9266;51.132;17.062;2022-12-24T06:06:19;9.00;99.90
18281;DHT22;9266;51.132;17.062;2022-12-24T06:08:47;9.10;99.90
18281;DHT22;9266;51.132;17.062;2022-12-24T06:11:16;9.00;99.90
18281;DHT22;9266;51.132;17.062;2022-12-24T06:13:43;9.00;99.90
18281;DHT22;9266;51.132;17.062;2022-12-24T06:16:12;9.00;99.90
18281;DHT22;9266;51.132;17.062;2022-12-24T06:18:40;9.00;99.90
18281;DHT22;9266;51.132;17.062;2022-12-24T06:21:09;9.10;99.90
18281;DHT22;9266;51.132;17.062;2022-12-24T06:23:37;9.20;99.90
18281;DHT22;9266;51.132;17.062;2022-12-24T06:26:06;9.30;99.90
18281;DHT22;9266;51.132;17.062;2022-12-24T06:28:35;9.20;99.90
18281;DHT22;9266;51.132;17.062;2022-12-24T06:31:04;9.20;99.90
18281;DHT22;9266;51.132;17.062;2022-12-24T06:33:33;9.10;99.90
18281;DHT22;9266;51.132;17.062;2022-12-24T06:36:00;9.20;99.90
18281;DHT22;9266;51.132;17.062;2022-12-24T06:38:30;9.10;99.90
18281;DHT22;9266;51.132;17.062;2022-12-24T06:40:57;9.20;99.90
18281;DHT22;9266;51.132;17.062;2022-12-24T06:43:24;9.20;99.90
18281;DHT22;9266;51.132;17.062;2022-12-24T06:45:51;9.10;99.90
18281;DHT22;9266;51.132;17.062;2022-12-24T06:48:18;9.10;99.90
18281;DHT22;9266;51.132;17.062;2022-12-24T06:50:46;9.00;99.90
18281;DHT22;9266;51.132;17.062;2022-12-24T06:53:13;9.10;99.90
18281;DHT22;9266;51.132;17.062;2022-12-24T06:55:42;9.10;99.90
18281;DHT22;9266;51.132;17.062;2022-12-24T06:58:09;9.20;99.90
18281;DHT22;9266;51.132;17.062;2022-12-24T07:00:36;9.10;99.90
18281;DHT22;9266;51.132;17.062;2022-12-24T07:03:03;9.10;99.90
18281;DHT22;9266;51.132;17.062;2022-12-24T07:05:30;9.10;99.90
18281;DHT22;9266;51.132;17.062;2022-12-24T07:07:57;9.10;99.90
18281;DHT22;9266;51.132;17.062;2022-12-24T07:10:25;9.10;99.90
18281;DHT22;9266;51.132;17.062;2022-12-24T07:12:53;9.10;99.90
18281;DHT22;9266;51.132;17.062;2022-12-24T07:15:20;9.10;99.90
18281;DHT22;9266;51.132;17.062;2022-12-24T07:17:47;9.20;99.90
18281;DHT22;9266;51.132;17.062;2022-12-24T07:20:14;9.10;99.90
18281;DHT22;9266;51.132;17.062;2022-12-24T07:22:42;9.10;99.90
18281;DHT22;9266;51.132;17.062;2022-12-24T07:25:09;9.10;99.90
18281;DHT22;9266;51.132;17.062;2022-12-24T07:27:37;9.10;99.90
18281;DHT22;9266;51.132;17.062;2022-12-24T07:30:07;9.10;99.90
18281;DHT22;9266;51.132;17.062;2022-12-24T07:32:35;9.10;99.90
18281;DHT22;9266;51.132;17.062;2022-12-24T07:35:03;9.10;99.90
18281;DHT22;9266;51.132;17.062;2022-12-24T07:37:30;9.10;99.90
18281;DHT22;9266;51.132;17.062;2022-12-24T07:39:57;9.10;99.90
18281;DHT22;9266;51.132;17.062;2022-12-24T07:42:24;9.00;99.90
18281;DHT22;9266;51.132;17.062;2022-12-24T07:44:51;9.10;99.90
18281;DHT22;9266;51.132;17.062;2022-12-24T07:47:19;9.10;99.90
18281;DHT22;9266;51.132;17.062;2022-12-24T07:49:46;9.10;99.90
18281;DHT22;9266;51.132;17.062;2022-12-24T07:52:13;9.10;99.90
18281;DHT22;9266;51.132;17.062;2022-12-24T07:54:40;9.00;99.90
18281;DHT22;9266;51.132;17.062;2022-12-24T07:57:07;9.00;99.90
18281;DHT22;9266;51.132;17.062;2022-12-24T07:59:34;9.00;99.90
18281;DHT22;9266;51.132;17.062;2022-12-24T08:02:01;9.00;99.90
18281;DHT22;9266;51.132;17.062;2022-12-24T08:04:31;9.00;99.90
18281;DHT22;9266;51.132;17.062;2022-12-24T08:07:01;9.00;99.90
18281;DHT22;9266;51.132;17.062;2022-12-24T08:09:30;8.90;99.90
18281;DHT22;9266;51.132;17.062;2022-12-24T08:11:57;9.00;99.90
18281;DHT22;9266;51.132;17.062;2022-12-24T08:14:24;8.90;99.90
18281;DHT22;9266;51.132;17.062;2022-12-24T08:16:51;8.90;99.90
18281;DHT22;9266;51.132;17.062;2022-12-24T08:19:18;8.90;99.90
18281;DHT22;9266;51.132;17.062;2022-12-24T08:21:47;8.90;99.90
18281;DHT22;9266;51.132;17.062;2022-12-24T08:24:14;8.80;99.90
18281;DHT22;9266;51.132;17.062;2022-12-24T08:26:41;8.80;99.90
18281;DHT22;9266;51.132;17.062;2022-12-24T08:29:08;8.80;99.90
18281;DHT22;9266;51.132;17.062;2022-12-24T08:31:36;8.80;99.90
18281;DHT22;9266;51.132;17.062;2022-12-24T08:34:04;8.70;99.90
18281;DHT22;9266;51.132;17.062;2022-12-24T08:36:32;8.80;99.90
18281;DHT22;9266;51.132;17.062;2022-12-24T08:39:00;9.00;99.90
18281;DHT22;9266;51.132;17.062;2022-12-24T08:41:28;8.80;99.90
18281;DHT22;9266;51.132;17.062;2022-12-24T08:43:55;8.70;99.90
18281;DHT22;9266;51.132;17.062;2022-12-24T08:46:22;8.70;99.90
18281;DHT22;9266;51.132;17.062;2022-12-24T08:48:49;8.70;99.90
18281;DHT22;9266;51.132;17.062;2022-12-24T08:51:16;8.70;99.90
18281;DHT22;9266;51.132;17.062;2022-12-24T08:53:44;8.70;99.90
18281;DHT22;9266;51.132;17.062;2022-12-24T08:56:13;8.70;99.90
18281;DHT22;9266;51.132;17.062;2022-12-24T08:58:40;8.70;99.90
18281;DHT22;9266;51.132;17.062;2022-12-24T09:01:13;8.60;99.90
18281;DHT22;9266;51.132;17.062;2022-12-24T09:03:40;8.70;99.90
18281;DHT22;9266;51.132;17.062;2022-12-24T09:06:08;8.70;99.90
18281;DHT22;9266;51.132;17.062;2022-12-24T09:08:35;8.70;99.90
18281;DHT22;9266;51.132;17.062;2022-12-24T09:11:04;8.70;99.90
18281;DHT22;9266;51.132;17.062;2022-12-24T09:13:33;8.70;99.90
18281;DHT22;9266;51.132;17.062;2022-12-24T09:16:01;8.70;99.90
18281;DHT22;9266;51.132;17.062;2022-12-24T09:18:28;8.70;99.90
18281;DHT22;9266;51.132;17.062;2022-12-24T09:20:59;8.60;99.90
18281;DHT22;9266;51.132;17.062;2022-12-24T09:23:27;8.60;99.90
18281;DHT22;9266;51.132;17.062;2022-12-24T09:25:54;8.60;99.90
18281;DHT22;9266;51.132;17.062;2022-12-24T09:28:22;8.60;99.90
18281;DHT22;9266;51.132;17.062;2022-12-24T09:30:57;8.70;99.90
18281;DHT22;9266;51.132;17.062;2022-12-24T09:33:25;8.70;99.90
18281;DHT22;9266;51.132;17.062;2022-12-24T09:35:53;9.10;99.90
18281;DHT22;9266;51.132;17.062;2022-12-24T09:38:20;8.70;99.90
18281;DHT22;9266;51.132;17.062;2022-12-24T09:40:48;8.70;99.90
18281;DHT22;9266;51.132;17.062;2022-12-24T09:43:17;8.70;99.90
18281;DHT22;9266;51.132;17.062;2022-12-24T09:45:50;8.70;99.90
18281;DHT22;9266;51.132;17.062;2022-12-24T09:48:25;8.70;99.90
18281;DHT22;9266;51.132;17.062;2022-12-24T09:50:57;8.70;99.90
18281;DHT22;9266;51.132;17.062;2022-12-24T09:53:27;8.60;99.90
18281;DHT22;9266;51.132;17.062;2022-12-24T09:55:57;8.70;99.90
18281;DHT22;9266;51.132;17.062;2022-12-24T09:58:28;8.60;99.90
18281;DHT22;9266;51.132;17.062;2022-12-24T10:00:57;8.60;99.90
18281;DHT22;9266;51.132;17.062;2022-12-24T10:03:25;8.60;99.90
18281;DHT22;9266;51.132;17.062;2022-12-24T10:06:02;8.50;99.90
18281;DHT22;9266;51.132;17.062;2022-12-24T10:08:37;8.60;99.90
18281;DHT22;9266;51.132;17.062;2022-12-24T10:11:15;8.60;99.90
18281;DHT22;9266;51.132;17.062;2022-12-24T10:14:02;8.60;99.90
18281;DHT22;9266;51.132;17.062;2022-12-24T10:16:40;8.60;99.90
18281;DHT22;9266;51.132;17.062;2022-12-24T10:19:16;8.50;99.90
18281;DHT22;9266;51.132;17.062;2022-12-24T10:21:53;8.50;99.90
18281;DHT22;9266;51.132;17.062;2022-12-24T10:24:26;8.50;99.90
18281;DHT22;9266;51.132;17.062;2022-12-24T10:26:58;8.60;99.90
18281;DHT22;9266;51.132;17.062;2022-12-24T10:29:28;8.60;99.90
18281;DHT22;9266;51.132;17.062;2022-12-24T10:32:03;8.70;99.90
18281;DHT22;9266;51.132;17.062;2022-12-24T10:34:44;8.60;99.90
18281;DHT22;9266;51.132;17.062;2022-12-24T10:37:15;8.50;99.90
18281;DHT22;9266;51.132;17.062;2022-12-24T10:39:43;8.50;99.90
18281;DHT22;9266;51.132;17.062;2022-12-24T10:42:10;8.50;99.90
18281;DHT22;9266;51.132;17.062;2022-12-24T10:44:38;8.40;99.90
18281;DHT22;9266;51.132;17.062;2022-12-24T10:47:06;8.40;99.90
18281;DHT22;9266;51.132;17.062;2022-12-24T10:49:38;8.40;99.90
18281;DHT22;9266;51.132;17.062;2022-12-24T10:52:12;8.30;99.90
18281;DHT22;9266;51.132;17.062;2022-12-24T10:55:05;8.30;99.90
18281;DHT22;9266;51.132;17.062;2022-12-24T10:57:33;8.40;99.90
18281;DHT22;9266;51.132;17.062;2022-12-24T11:00:00;8.40;99.90
18281;DHT22;9266;51.132;17.062;2022-12-24T11:02:29;8.40;99.90
18281;DHT22;9266;51.132;17.062;2022-12-24T11:04:57;8.40;99.90
18281;DHT22;9266;51.132;17.062;2022-12-24T11:07:27;8.30;99.90
18281;DHT22;9266;51.132;17.062;2022-12-24T11:09:56;8.30;99.90
18281;DHT22;9266;51.132;17.062;2022-12-24T11:12:25;8.40;99.90
18281;DHT22;9266;51.132;17.062;2022-12-24T11:15:02;8.40;99.90
18281;DHT22;9266;51.132;17.062;2022-12-24T11:17:30;8.40;99.90
18281;DHT22;9266;51.132;17.062;2022-12-24T11:19:57;8.30;99.90
18281;DHT22;9266;51.132;17.062;2022-12-24T11:22:28;8.30;99.90
18281;DHT22;9266;51.132;17.062;2022-12-24T11:25:00;8.20;99.90
18281;DHT22;9266;51.132;17.062;2022-12-24T11:27:38;8.20;99.90
18281;DHT22;9266;51.132;17.062;2022-12-24T11:30:25;8.20;99.90
18281;DHT22;9266;51.132;17.062;2022-12-24T11:33:16;8.30;99.90
18281;DHT22;9266;51.132;17.062;2022-12-24T11:35:47;8.20;99.90
18281;DHT22;9266;51.132;17.062;2022-12-24T11:38:22;8.20;99.90
18281;DHT22;9266;51.132;17.062;2022-12-24T11:41:02;8.30;99.90
18281;DHT22;9266;51.132;17.062;2022-12-24T11:43:36;8.40;99.90
18281;DHT22;9266;51.132;17.062;2022-12-24T11:46:16;8.40;99.90
18281;DHT22;9266;51.132;17.062;2022-12-24T11:48:44;8.50;99.90
18281;DHT22;9266;51.132;17.062;2022-12-24T11:51:29;8.50;99.90
18281;DHT22;9266;51.132;17.062;2022-12-24T11:54:03;8.60;99.90
18281;DHT22;9266;51.132;17.062;2022-12-24T11:56:36;8.60;99.90
18281;DHT22;9266;51.132;17.062;2022-12-24T11:59:14;8.60;99.90
18281;DHT22;9266;51.132;17.062;2022-12-24T12:01:50;8.50;99.90
18281;DHT22;9266;51.132;17.062;2022-12-24T12:04:20;8.60;99.90
18281;DHT22;9266;51.132;17.062;2022-12-24T12:06:50;8.60;99.90
18281;DHT22;9266;51.132;17.062;2022-12-24T12:09:23;8.60;99.90
18281;DHT22;9266;51.132;17.062;2022-12-24T12:11:54;8.70;99.90
18281;DHT22;9266;51.132;17.062;2022-12-24T12:14:26;8.70;99.90
18281;DHT22;9266;51.132;17.062;2022-12-24T12:16:59;8.70;99.90
18281;DHT22;9266;51.132;17.062;2022-12-24T12:19:38;8.80;99.90
18281;DHT22;9266;51.132;17.062;2022-12-24T12:22:16;8.80;99.90
18281;DHT22;9266;51.132;17.062;2022-12-24T12:24:50;8.90;99.90
18281;DHT22;9266;51.132;17.062;2022-12-24T12:27:23;8.90;99.90
18281;DHT22;9266;51.132;17.062;2022-12-24T12:29:56;9.00;99.90
18281;DHT22;9266;51.132;17.062;2022-12-24T12:32:35;9.00;99.90
18281;DHT22;9266;51.132;17.062;2022-12-24T12:35:09;9.10;99.90
18281;DHT22;9266;51.132;17.062;2022-12-24T12:37:42;9.10;99.90
18281;DHT22;9266;51.132;17.062;2022-12-24T12:40:14;9.10;99.90
18281;DHT22;9266;51.132;17.062;2022-12-24T12:42:48;9.10;99.90
18281;DHT22;9266;51.132;17.062;2022-12-24T12:45:41;9.20;99.90
18281;DHT22;9266;51.132;17.062;2022-12-24T12:48:25;9.30;99.90
18281;DHT22;9266;51.132;17.062;2022-12-24T12:51:01;9.30;99.90
18281;DHT22;9266;51.132;17.062;2022-12-24T12:53:48;9.40;99.90
18281;DHT22;9266;51.132;17.062;2022-12-24T12:56:28;9.40;99.90
18281;DHT22;9266;51.132;17.062;2022-12-24T12:58:59;9.40;99.90
18281;DHT22;9266;51.132;17.062;2022-12-24T13:01:38;9.50;99.90
18281;DHT22;9266;51.132;17.062;2022-12-24T13:07:37;9.60;99.90
18281;DHT22;9266;51.132;17.062;2022-12-24T13:10:26;9.10;99.90
18281;DHT22;9266;51.132;17.062;2022-12-24T13:19:22;9.50;99.90
18281;DHT22;9266;51.132;17.062;2022-12-24T13:21:54;9.40;99.90
18281;DHT22;9266;51.132;17.062;2022-12-24T13:24:23;9.30;99.90
18281;DHT22;9266;51.132;17.062;2022-12-24T13:27:03;9.30;99.90
18281;DHT22;9266;51.132;17.062;2022-12-24T13:29:45;9.20;99.90
18281;DHT22;9266;51.132;17.062;2022-12-24T13:32:46;9.20;99.90
18281;DHT22;9266;51.132;17.062;2022-12-24T13:35:31;9.20;99.90
18281;DHT22;9266;51.132;17.062;2022-12-24T13:38:38;9.20;99.90
18281;DHT22;9266;51.132;17.062;2022-12-24T13:44:24;9.30;99.90
18281;DHT22;9266;51.132;17.062;2022-12-24T13:47:00;9.30;99.90
18281;DHT22;9266;51.132;17.062;2022-12-24T13:49:32;9.40;99.90
18281;DHT22;9266;51.132;17.062;2022-12-24T13:52:25;9.30;99.90
18281;DHT22;9266;51.132;17.062;2022-12-24T13:55:17;9.40;99.90
18281;DHT22;9266;51.132;17.062;2022-12-24T13:57:52;9.50;99.90
18281;DHT22;9266;51.132;17.062;2022-12-24T14:00:30;9.50;99.90
18281;DHT22;9266;51.132;17.062;2022-12-24T14:03:02;9.50;99.90
18281;DHT22;9266;51.132;17.062;2022-12-24T14:05:33;9.60;99.90
18281;DHT22;9266;51.132;17.062;2022-12-24T14:08:05;9.50;99.90
18281;DHT22;9266;51.132;17.062;2022-12-24T14:10:37;9.50;99.90
18281;DHT22;9266;51.132;17.062;2022-12-24T14:13:05;9.60;99.90
18281;DHT22;9266;51.132;17.062;2022-12-24T14:16:00;9.60;99.90
18281;DHT22;9266;51.132;17.062;2022-12-24T14:18:31;9.70;99.90
18281;DHT22;9266;51.132;17.062;2022-12-24T14:21:00;9.80;99.90
18281;DHT22;9266;51.132;17.062;2022-12-24T14:23:35;9.80;99.90
18281;DHT22;9266;51.132;17.062;2022-12-24T14:26:10;9.70;99.90
18281;DHT22;9266;51.132;17.062;2022-12-24T14:28:42;9.70;99.90
18281;DHT22;9266;51.132;17.062;2022-12-24T14:31:14;9.60;99.90
18281;DHT22;9266;51.132;17.062;2022-12-24T14:33:43;9.50;99.90
18281;DHT22;9266;51.132;17.062;2022-12-24T14:36:12;9.30;99.90
18281;DHT22;9266;51.132;17.062;2022-12-24T14:38:42;9.20;99.90
18281;DHT22;9266;51.132;17.062;2022-12-24T14:41:29;9.20;99.90
18281;DHT22;9266;51.132;17.062;2022-12-24T14:44:05;9.10;99.90
18281;DHT22;9266;51.132;17.062;2022-12-24T14:46:39;9.00;99.90
18281;DHT22;9266;51.132;17.062;2022-12-24T14:49:16;8.90;99.90
18281;DHT22;9266;51.132;17.062;2022-12-24T14:51:55;8.80;99.90
18281;DHT22;9266;51.132;17.062;2022-12-24T14:54:36;8.70;99.90
18281;DHT22;9266;51.132;17.062;2022-12-24T14:57:18;8.90;99.90
18281;DHT22;9266;51.132;17.062;2022-12-24T14:59:48;9.00;99.90
18281;DHT22;9266;51.132;17.062;2022-12-24T15:02:35;9.00;99.90
18281;DHT22;9266;51.132;17.062;2022-12-24T15:05:10;9.00;99.90
18281;DHT22;9266;51.132;17.062;2022-12-24T15:07:42;9.00;99.90
18281;DHT22;9266;51.132;17.062;2022-12-24T15:10:24;9.00;99.90
18281;DHT22;9266;51.132;17.062;2022-12-24T15:12:53;9.10;99.90
18281;DHT22;9266;51.132;17.062;2022-12-24T15:15:21;9.10;99.90
18281;DHT22;9266;51.132;17.062;2022-12-24T15:17:48;9.10;99.90
18281;DHT22;9266;51.132;17.062;2022-12-24T15:20:19;9.10;99.90
18281;DHT22;9266;51.132;17.062;2022-12-24T15:22:50;9.00;99.90
18281;DHT22;9266;51.132;17.062;2022-12-24T15:25:20;8.90;99.90
18281;DHT22;9266;51.132;17.062;2022-12-24T15:27:48;8.70;99.90
18281;DHT22;9266;51.132;17.062;2022-12-24T15:30:18;9.30;99.90
18281;DHT22;9266;51.132;17.062;2022-12-24T15:32:45;8.50;99.90
18281;DHT22;9266;51.132;17.062;2022-12-24T15:35:46;8.40;99.90
18281;DHT22;9266;51.132;17.062;2022-12-24T15:38:25;8.20;99.90
18281;DHT22;9266;51.132;17.062;2022-12-24T15:40:53;8.20;99.90
18281;DHT22;9266;51.132;17.062;2022-12-24T15:43:21;8.40;99.90
18281;DHT22;9266;51.132;17.062;2022-12-24T15:45:49;8.50;99.90
18281;DHT22;9266;51.132;17.062;2022-12-24T15:48:19;8.50;99.90
18281;DHT22;9266;51.132;17.062;2022-12-24T15:50:51;8.60;99.90
18281;DHT22;9266;51.132;17.062;2022-12-24T15:53:26;8.50;99.90
18281;DHT22;9266;51.132;17.062;2022-12-24T15:56:06;8.60;99.90
18281;DHT22;9266;51.132;17.062;2022-12-24T15:58:36;8.60;99.90
18281;DHT22;9266;51.132;17.062;2022-12-24T16:03:55;8.60;99.90
18281;DHT22;9266;51.132;17.062;2022-12-24T16:06:24;8.60;99.90
18281;DHT22;9266;51.132;17.062;2022-12-24T16:08:52;8.40;99.90
18281;DHT22;9266;51.132;17.062;2022-12-24T16:11:22;8.30;99.90
18281;DHT22;9266;51.132;17.062;2022-12-24T16:14:09;8.20;99.90
18281;DHT22;9266;51.132;17.062;2022-12-24T16:16:39;8.10;99.90
18281;DHT22;9266;51.132;17.062;2022-12-24T16:19:15;8.10;99.90
18281;DHT22;9266;51.132;17.062;2022-12-24T16:21:44;8.20;99.90
18281;DHT22;9266;51.132;17.062;2022-12-24T16:24:16;8.20;99.90
18281;DHT22;9266;51.132;17.062;2022-12-24T16:26:44;8.30;99.90
18281;DHT22;9266;51.132;17.062;2022-12-24T16:29:13;8.20;99.90
18281;DHT22;9266;51.132;17.062;2022-12-24T16:31:44;8.20;99.90